createdAt,value
2022-12-27T00:02:09.204Z,5.88
2022-12-27T00:04:54.111Z,5.86
2022-12-27T00:07:37.496Z,5.84
2022-12-27T00:10:20.354Z,5.85
2022-12-27T00:13:03.221Z,5.78
2022-12-27T00:15:46.005Z,5.81
2022-12-27T00:18:28.830Z,5.80
2022-12-27T00:21:14.686Z,5.71
2022-12-27T00:23:58.631Z,5.70
2022-12-27T00:26:41.873Z,5.65
2022-12-27T00:29:24.780Z,5.61
2022-12-27T00:32:07.565Z,5.59
2022-12-27T00:34:50.481Z,5.57
2022-12-27T00:37:34.644Z,5.47
2022-12-27T00:40:17.573Z,5.51
2022-12-27T00:43:00.408Z,5.44
2022-12-27T00:45:44.095Z,5.42
2022-12-27T00:48:26.965Z,5.45
2022-12-27T00:51:13.700Z,5.43
2022-12-27T00:53:58.016Z,5.41
2022-12-27T00:56:40.868Z,5.40
2022-12-27T00:59:23.645Z,5.39
2022-12-27T01:02:06.599Z,5.27
2022-12-27T01:04:49.462Z,5.22
2022-12-27T01:07:32.315Z,5.20
2022-12-27T01:10:16.513Z,5.10
2022-12-27T01:13:01.603Z,5.11
2022-12-27T01:15:44.682Z,4.99
2022-12-27T01:18:27.513Z,4.98
2022-12-27T01:21:12.617Z,4.91
2022-12-27T01:23:56.103Z,4.87
2022-12-27T01:26:40.297Z,4.84
2022-12-27T01:29:23.111Z,4.85
2022-12-27T01:32:06.132Z,4.81
2022-12-27T01:34:49.001Z,4.82
2022-12-27T01:37:31.798Z,4.74
2022-12-27T01:40:14.705Z,4.72
2022-12-27T01:42:58.095Z,4.76
2022-12-27T01:45:41.094Z,4.75
2022-12-27T01:48:26.132Z,4.74
2022-12-27T01:51:09.594Z,4.73
2022-12-27T01:53:54.186Z,4.75
2022-12-27T01:56:36.827Z,4.69
2022-12-27T01:59:21.001Z,4.67
2022-12-27T02:02:04.350Z,4.70
2022-12-27T02:04:47.374Z,4.66
2022-12-27T02:07:40.172Z,4.64
2022-12-27T02:10:22.976Z,4.66
2022-12-27T02:13:06.897Z,4.69
2022-12-27T02:15:51.111Z,4.64
2022-12-27T02:18:33.933Z,4.65
2022-12-27T02:21:38.139Z,4.55
2022-12-27T02:24:41.004Z,4.51
2022-12-27T02:27:45.178Z,4.30
2022-12-27T02:30:32.758Z,4.08
2022-12-27T02:33:22.228Z,3.88
2022-12-27T02:36:10.204Z,3.56
2022-12-27T02:38:57.414Z,3.15
2022-12-27T02:41:58.974Z,3.11
2022-12-27T02:44:59.479Z,2.82
2022-12-27T02:48:10.003Z,2.84
2022-12-27T02:51:23.609Z,2.45
2022-12-27T02:54:19.943Z,2.52
2022-12-27T02:57:12.765Z,2.31
2022-12-27T03:00:25.689Z,2.22
2022-12-27T03:03:35.521Z,2.07
2022-12-27T03:06:41.435Z,2.08
2022-12-27T03:09:57.133Z,1.89
2022-12-27T03:13:06.057Z,1.72
2022-12-27T03:16:02.533Z,1.53
2022-12-27T03:18:57.494Z,1.55
2022-12-27T03:22:02.181Z,1.45
2022-12-27T03:25:03.040Z,1.46
2022-12-27T03:28:10.005Z,1.43
2022-12-27T03:31:16.013Z,1.35
2022-12-27T03:34:27.539Z,1.39
2022-12-27T03:37:31.760Z,1.38
2022-12-27T03:40:23.533Z,1.27
2022-12-27T03:43:11.775Z,1.30
2022-12-27T03:46:15.352Z,1.10
2022-12-27T03:49:12.442Z,1.00
2022-12-27T03:52:02.179Z,1.10
2022-12-27T03:54:48.940Z,1.06
2022-12-27T03:57:32.571Z,1.03
2022-12-27T04:00:15.937Z,0.89
2022-12-27T04:02:59.408Z,0.86
2022-12-27T04:05:43.608Z,0.74
2022-12-27T04:08:44.781Z,0.86
2022-12-27T04:11:45.197Z,0.78
2022-12-27T04:14:45.670Z,0.94
2022-12-27T04:17:46.580Z,0.77
2022-12-27T04:20:46.867Z,0.88
2022-12-27T04:23:48.627Z,0.76
2022-12-27T04:26:48.950Z,0.76
2022-12-27T04:29:49.198Z,0.73
2022-12-27T04:32:49.735Z,0.78
2022-12-27T04:35:32.489Z,0.65
2022-12-27T04:38:15.277Z,0.67
2022-12-27T04:41:16.862Z,0.59
2022-12-27T04:44:17.040Z,0.54
2022-12-27T04:47:17.457Z,0.43
2022-12-27T04:50:18.301Z,0.51
2022-12-27T04:53:18.824Z,0.40
2022-12-27T04:56:03.099Z,0.37
2022-12-27T04:58:59.824Z,0.36
2022-12-27T05:02:00.713Z,0.40
2022-12-27T05:04:44.206Z,0.36
2022-12-27T05:07:44.286Z,0.43
2022-12-27T05:10:45.398Z,0.45
2022-12-27T05:13:47.136Z,0.43
2022-12-27T05:16:31.371Z,0.33
2022-12-27T05:19:15.489Z,0.36
2022-12-27T05:22:14.951Z,0.32
2022-12-27T05:25:15.071Z,0.31
2022-12-27T05:27:57.902Z,0.32
2022-12-27T05:30:44.665Z,0.29
2022-12-27T05:33:27.480Z,0.29
2022-12-27T05:36:11.513Z,0.29
2022-12-27T05:38:54.664Z,0.19
2022-12-27T05:41:37.450Z,0.23
2022-12-27T05:44:20.273Z,0.23
2022-12-27T05:47:04.480Z,0.25
2022-12-27T05:49:47.301Z,0.14
2022-12-27T05:52:33.956Z,0.17
2022-12-27T05:55:20.418Z,0.21
2022-12-27T05:58:03.261Z,0.23
2022-12-27T06:00:46.031Z,0.25
2022-12-27T06:03:30.256Z,0.24
2022-12-27T06:06:14.300Z,0.24
2022-12-27T06:08:57.095Z,0.24
2022-12-27T06:11:40.343Z,0.24
2022-12-27T06:14:23.388Z,0.21
2022-12-27T06:17:06.170Z,0.04
2022-12-27T06:19:56.692Z,0.10
2022-12-27T06:22:39.890Z,0.09
2022-12-27T06:25:22.692Z,0.10
2022-12-27T06:28:05.726Z,0.04
2022-12-27T06:30:48.503Z,0.08
2022-12-27T06:33:31.626Z,0.06
2022-12-27T06:36:18.235Z,0.09
2022-12-27T06:39:01.443Z,0.12
2022-12-27T06:41:44.261Z,0.12
2022-12-27T06:44:27.154Z,0.05
2022-12-27T06:47:09.915Z,0.04
2022-12-27T06:49:52.685Z,0.05
2022-12-27T06:52:37.053Z,0.06
2022-12-27T06:55:19.819Z,0.07
2022-12-27T06:58:02.582Z,0.06
2022-12-27T07:00:46.358Z,0.06
2022-12-27T07:03:29.221Z,0.08
2022-12-27T07:06:12.912Z,0.07
2022-12-27T07:08:58.214Z,0.05
2022-12-27T07:11:40.987Z,0.06
2022-12-27T07:14:23.767Z,0.07
2022-12-27T07:17:06.547Z,0.07
2022-12-27T07:19:49.341Z,0.05
2022-12-27T07:22:32.244Z,0.05
2022-12-27T07:25:16.402Z,0.05
2022-12-27T07:27:59.160Z,0.03
2022-12-27T07:30:42.779Z,0.02
2022-12-27T07:33:25.581Z,-0.01
2022-12-27T07:36:12.835Z,-0.01
2022-12-27T07:38:56.205Z,0.01
2022-12-27T07:41:40.381Z,0.04
2022-12-27T07:44:23.173Z,0.06
2022-12-27T07:47:06.150Z,0.11
2022-12-27T07:49:48.949Z,0.16
2022-12-27T07:52:31.732Z,0.20
2022-12-27T07:55:14.531Z,0.23
2022-12-27T07:57:58.786Z,0.27
2022-12-27T08:00:41.737Z,0.32
2022-12-27T08:03:24.569Z,0.34
2022-12-27T08:06:08.688Z,0.40
2022-12-27T08:08:53.776Z,0.45
2022-12-27T08:11:37.284Z,0.51
2022-12-27T08:14:21.432Z,0.57
2022-12-27T08:17:07.511Z,0.62
2022-12-27T08:19:53.009Z,0.68
2022-12-27T08:22:35.785Z,0.71
2022-12-27T08:25:18.720Z,0.73
2022-12-27T08:28:05.575Z,0.75
2022-12-27T08:30:49.804Z,0.81
2022-12-27T08:33:32.568Z,0.86
2022-12-27T08:36:53.534Z,0.93
2022-12-27T08:39:18.553Z,1.01
2022-12-27T08:42:01.890Z,1.06
2022-12-27T08:44:45.037Z,1.11
2022-12-27T08:47:29.944Z,1.14
2022-12-27T08:50:12.863Z,1.17
2022-12-27T08:52:59.035Z,1.21
2022-12-27T08:55:42.046Z,1.24
2022-12-27T08:58:24.890Z,1.29
2022-12-27T09:01:08.200Z,1.37
2022-12-27T09:03:52.530Z,1.41
2022-12-27T09:06:35.633Z,1.42
2022-12-27T09:09:18.398Z,1.40
2022-12-27T09:12:04.014Z,1.43
2022-12-27T09:14:51.049Z,1.45
2022-12-27T09:17:34.257Z,1.46
2022-12-27T09:20:18.660Z,1.49
2022-12-27T09:23:01.628Z,1.49
2022-12-27T09:25:44.828Z,1.53
2022-12-27T09:28:27.624Z,1.62
2022-12-27T09:31:11.816Z,1.74
2022-12-27T09:33:55.113Z,1.79
2022-12-27T09:36:40.957Z,1.82
2022-12-27T09:39:23.737Z,1.87
2022-12-27T09:45:22.447Z,2.06
2022-12-27T09:48:11.463Z,2.16
2022-12-27T09:50:58.226Z,2.29
2022-12-27T09:53:47.464Z,2.40
2022-12-27T09:56:54.511Z,2.51
2022-12-27T09:59:40.222Z,2.67
2022-12-27T10:02:25.540Z,2.72
2022-12-27T10:05:21.151Z,2.70
2022-12-27T10:08:21.047Z,2.80
2022-12-27T10:11:31.219Z,2.89
2022-12-27T10:14:26.751Z,2.93
2022-12-27T10:17:21.098Z,2.98
2022-12-27T10:20:16.408Z,3.03
2022-12-27T10:23:06.494Z,3.02
2022-12-27T10:25:54.638Z,2.99
2022-12-27T10:28:42.722Z,3.01
2022-12-27T10:31:26.737Z,3.06
2022-12-27T10:34:11.474Z,3.12
2022-12-27T10:36:54.618Z,3.17
2022-12-27T10:39:38.497Z,3.23
2022-12-27T10:42:35.338Z,3.30
2022-12-27T10:45:33.632Z,3.29
2022-12-27T10:48:19.912Z,3.37
2022-12-27T10:51:09.034Z,3.45
2022-12-27T10:54:00.131Z,3.62
2022-12-27T10:56:45.024Z,3.73
2022-12-27T10:59:30.228Z,3.93
2022-12-27T11:02:20.124Z,3.98
2022-12-27T11:05:02.960Z,4.07
2022-12-27T11:07:45.747Z,4.01
2022-12-27T11:10:31.259Z,3.88
2022-12-27T11:13:20.075Z,4.02
2022-12-27T11:16:03.223Z,3.97
2022-12-27T11:18:50.693Z,3.97
2022-12-27T11:21:40.114Z,3.97
2022-12-27T11:24:23.857Z,3.84
2022-12-27T11:27:06.692Z,3.77
2022-12-27T11:29:49.819Z,3.62
2022-12-27T11:32:33.414Z,3.59
2022-12-27T11:35:20.986Z,3.48
2022-12-27T11:38:03.880Z,3.38
2022-12-27T11:40:58.239Z,3.29
2022-12-27T11:43:48.686Z,3.25
2022-12-27T11:46:39.432Z,3.22
2022-12-27T11:49:23.828Z,3.14
2022-12-27T11:52:37.520Z,3.10
2022-12-27T11:55:33.517Z,3.12
2022-12-27T11:58:42.861Z,3.11
2022-12-27T12:01:52.333Z,3.10
2022-12-27T12:04:59.991Z,3.10
2022-12-27T12:08:02.777Z,3.02
2022-12-27T12:10:53.370Z,3.02
2022-12-27T12:14:27.768Z,3.00
2022-12-27T12:17:36.408Z,3.06
2022-12-27T12:20:55.147Z,3.11
2022-12-27T12:23:55.845Z,3.16
2022-12-27T12:26:55.717Z,3.12
2022-12-27T12:30:02.216Z,3.12
2022-12-27T12:33:03.493Z,3.12
2022-12-27T12:35:59.239Z,3.19
2022-12-27T12:38:51.913Z,3.26
2022-12-27T12:42:16.175Z,3.30
2022-12-27T12:45:25.890Z,3.38
2022-12-27T12:48:37.963Z,3.46
2022-12-27T12:51:38.991Z,3.49
2022-12-27T12:54:54.780Z,3.56
2022-12-27T12:57:50.392Z,3.64
2022-12-27T13:00:47.452Z,3.68
2022-12-27T13:04:02.620Z,3.81
2022-12-27T13:07:12.070Z,3.98
2022-12-27T13:10:23.173Z,4.13
2022-12-27T13:13:14.531Z,4.21
2022-12-27T13:16:14.277Z,4.16
2022-12-27T13:19:14.232Z,4.22
2022-12-27T13:22:09.643Z,4.29
2022-12-27T13:25:10.359Z,4.33
2022-12-27T13:28:01.860Z,4.32
2022-12-27T13:30:55.015Z,4.41
2022-12-27T13:33:49.617Z,4.43
2022-12-27T13:36:42.702Z,4.37
2022-12-27T13:39:42.634Z,4.30
2022-12-27T13:42:55.214Z,4.19
2022-12-27T13:45:49.755Z,4.11
2022-12-27T13:48:51.042Z,3.98
2022-12-27T13:51:45.441Z,3.93
2022-12-27T13:55:04.817Z,3.84
2022-12-27T13:58:27.438Z,3.79
2022-12-27T14:01:30.733Z,3.78
2022-12-27T14:04:43.121Z,3.76
2022-12-27T14:07:57.588Z,3.71
2022-12-27T14:10:47.254Z,3.69
2022-12-27T14:13:36.075Z,3.65
2022-12-27T14:16:35.367Z,3.60
2022-12-27T14:19:36.839Z,3.59
2022-12-27T14:22:49.685Z,3.58
2022-12-27T14:26:22.397Z,3.58
2022-12-27T14:29:37.672Z,3.58
2022-12-27T14:33:01.885Z,3.58
2022-12-27T14:36:20.471Z,3.55
2022-12-27T14:39:36.452Z,3.53
2022-12-27T14:42:44.680Z,3.50
2022-12-27T14:45:59.474Z,3.48
2022-12-27T14:49:28.212Z,3.45
2022-12-27T14:52:48.029Z,3.42
2022-12-27T14:55:41.680Z,3.41
2022-12-27T14:58:39.658Z,3.38
2022-12-27T15:01:39.352Z,3.37
2022-12-27T15:05:11.883Z,3.31
2022-12-27T15:08:17.694Z,3.29
2022-12-27T15:11:21.528Z,3.23
2022-12-27T15:14:24.891Z,3.21
2022-12-27T15:17:20.130Z,3.15
2022-12-27T15:20:21.021Z,3.10
2022-12-27T15:23:16.786Z,3.04
2022-12-27T15:26:13.206Z,2.97
2022-12-27T15:29:11.293Z,2.93
2022-12-27T15:32:05.513Z,2.88
2022-12-27T15:35:08.298Z,2.83
2022-12-27T15:38:04.237Z,2.79
2022-12-27T15:41:05.815Z,2.72
2022-12-27T15:44:06.162Z,2.68
2022-12-27T15:47:16.667Z,2.63
2022-12-27T15:50:42.931Z,2.58
2022-12-27T15:53:43.927Z,2.53
2022-12-27T15:56:44.894Z,2.48
2022-12-27T15:59:37.235Z,2.45
2022-12-27T16:02:31.120Z,2.36
2022-12-27T16:05:47.475Z,2.26
2022-12-27T16:08:33.892Z,2.20
2022-12-27T16:11:17.141Z,2.12
2022-12-27T16:14:24.893Z,2.08
2022-12-27T16:17:30.838Z,2.02
2022-12-27T16:20:19.429Z,1.99
2022-12-27T16:23:06.803Z,1.97
2022-12-27T16:25:49.628Z,1.94
2022-12-27T16:28:35.128Z,1.89
2022-12-27T16:31:23.008Z,1.84
2022-12-27T16:34:14.430Z,1.78
2022-12-27T16:37:00.901Z,1.75
2022-12-27T16:40:09.857Z,1.74
2022-12-27T16:43:33.032Z,1.74
2022-12-27T16:46:45.619Z,1.73
2022-12-27T16:50:01.749Z,1.73
2022-12-27T16:52:54.122Z,1.67
2022-12-27T16:55:56.365Z,1.61
2022-12-27T16:58:40.213Z,1.62
2022-12-27T17:01:48.905Z,1.58
2022-12-27T17:04:54.915Z,1.55
2022-12-27T17:08:07.429Z,1.58
2022-12-27T17:11:22.988Z,1.65
2022-12-27T17:14:11.334Z,1.70
2022-12-27T17:16:58.261Z,1.74
2022-12-27T17:19:46.703Z,1.73
2022-12-27T17:22:35.099Z,1.75
2022-12-27T17:25:22.857Z,1.73
2022-12-27T17:28:13.216Z,1.76
2022-12-27T17:31:06.992Z,1.75
2022-12-27T17:34:02.983Z,1.73
2022-12-27T17:36:59.009Z,1.73
2022-12-27T17:40:00.273Z,1.73
2022-12-27T17:43:12.277Z,1.73
2022-12-27T17:46:08.159Z,1.74
2022-12-27T17:48:54.149Z,1.77
2022-12-27T17:52:01.486Z,1.80
2022-12-27T17:55:01.981Z,1.81
2022-12-27T17:57:55.451Z,1.81
2022-12-27T18:00:45.396Z,1.84
2022-12-27T18:03:36.519Z,1.84
2022-12-27T18:06:19.916Z,1.82
2022-12-27T18:09:03.101Z,1.80
2022-12-27T18:11:45.900Z,1.79
2022-12-27T18:14:31.275Z,1.78
2022-12-27T18:17:29.010Z,1.74
2022-12-27T18:20:29.005Z,1.72
2022-12-27T18:23:17.440Z,1.70
2022-12-27T18:26:09.194Z,1.67
2022-12-27T18:28:55.187Z,1.66
2022-12-27T18:31:46.853Z,1.60
2022-12-27T18:34:35.796Z,1.57
2022-12-27T18:37:22.946Z,1.56
2022-12-27T18:40:06.825Z,1.55
2022-12-27T18:42:51.490Z,1.54
2022-12-27T18:45:34.925Z,1.51
2022-12-27T18:48:19.233Z,1.46
2022-12-27T18:51:02.958Z,1.40
2022-12-27T18:53:47.129Z,1.32
2022-12-27T18:56:32.628Z,1.25
2022-12-27T18:59:25.510Z,1.16
2022-12-27T19:02:32.653Z,1.12
2022-12-27T19:05:30.089Z,1.10
2022-12-27T19:08:20.017Z,1.10
2022-12-27T19:11:05.546Z,1.08
2022-12-27T19:13:51.437Z,1.07
2022-12-27T19:16:36.702Z,1.03
2022-12-27T19:19:24.842Z,1.05
2022-12-27T19:22:34.352Z,1.03
2022-12-27T19:25:23.707Z,1.01
2022-12-27T19:28:27.057Z,1.02
2022-12-27T19:31:19.452Z,1.05
2022-12-27T19:34:07.184Z,1.02
2022-12-27T19:36:50.571Z,0.99
2022-12-27T19:39:36.736Z,0.96
2022-12-27T19:42:26.954Z,0.96
2022-12-27T19:45:15.209Z,0.93
2022-12-27T19:47:57.977Z,0.94
2022-12-27T19:50:44.012Z,0.93
2022-12-27T19:53:33.094Z,0.92
2022-12-27T19:56:16.179Z,0.93
2022-12-27T19:58:58.930Z,0.91
2022-12-27T20:01:43.143Z,0.89
2022-12-27T20:04:26.036Z,0.85
2022-12-27T20:07:19.451Z,0.79
2022-12-27T20:10:02.234Z,0.66
2022-12-27T20:12:45.038Z,0.60
2022-12-27T20:15:27.849Z,0.55
2022-12-27T20:18:12.935Z,0.52
2022-12-27T20:20:55.745Z,0.52
2022-12-27T20:23:38.594Z,0.51
2022-12-27T20:26:23.622Z,0.47
2022-12-27T20:29:06.433Z,0.52
2022-12-27T20:31:52.184Z,0.57
2022-12-27T20:34:36.423Z,0.58
2022-12-27T20:37:24.299Z,0.59
2022-12-27T20:40:08.903Z,0.62
2022-12-27T20:42:52.010Z,0.62
2022-12-27T20:45:35.736Z,0.66
2022-12-27T20:48:18.552Z,0.65
2022-12-27T20:51:08.615Z,0.64
2022-12-27T20:53:56.770Z,0.65
2022-12-27T20:56:39.560Z,0.65
2022-12-27T20:59:22.509Z,0.64
2022-12-27T21:02:05.449Z,0.62
2022-12-27T21:04:48.408Z,0.60
2022-12-27T21:07:32.555Z,0.61
2022-12-27T21:10:15.317Z,0.54
2022-12-27T21:12:58.121Z,0.49
2022-12-27T21:15:42.649Z,0.45
2022-12-27T21:18:25.584Z,0.41
2022-12-27T21:21:10.563Z,0.38
2022-12-27T21:23:54.756Z,0.37
2022-12-27T21:26:39.593Z,0.34
2022-12-27T21:29:22.351Z,0.33
2022-12-27T21:32:05.732Z,0.29
2022-12-27T21:34:49.262Z,0.32
2022-12-27T21:37:32.130Z,0.27
2022-12-27T21:40:16.264Z,0.25
2022-12-27T21:42:59.224Z,0.22
2022-12-27T21:45:42.163Z,0.24
2022-12-27T21:48:25.631Z,0.26
2022-12-27T21:51:10.109Z,0.28
2022-12-27T21:53:52.779Z,0.28
2022-12-27T21:56:36.948Z,0.30
2022-12-27T21:59:19.699Z,0.31
2022-12-27T22:02:02.593Z,0.32
2022-12-27T22:04:45.761Z,0.34
2022-12-27T22:07:28.512Z,0.38
2022-12-27T22:10:11.292Z,0.41
2022-12-27T22:12:55.436Z,0.41
2022-12-27T22:15:38.221Z,0.44
2022-12-27T22:18:21.140Z,0.46
2022-12-27T22:21:06.306Z,0.47
2022-12-27T22:23:51.000Z,0.45
2022-12-27T22:26:37.191Z,0.43
2022-12-27T22:29:21.755Z,0.32
2022-12-27T22:32:04.467Z,0.18
2022-12-27T22:34:47.213Z,0.13
2022-12-27T22:37:30.004Z,-0.01
2022-12-27T22:40:30.762Z,-0.09
2022-12-27T22:43:16.350Z,-0.09
2022-12-27T22:46:00.517Z,-0.10
2022-12-27T22:48:43.302Z,-0.13
2022-12-27T22:51:28.092Z,-0.15
2022-12-27T22:54:10.878Z,-0.14
2022-12-27T22:56:53.699Z,-0.16
2022-12-27T22:59:36.564Z,-0.17
2022-12-27T23:02:20.766Z,-0.12
2022-12-27T23:05:04.134Z,-0.06
2022-12-27T23:08:05.782Z,-0.03
2022-12-27T23:10:49.666Z,-0.03
2022-12-27T23:13:32.566Z,0.01
2022-12-27T23:16:15.560Z,0.00
2022-12-27T23:18:59.969Z,-0.02
2022-12-27T23:21:43.523Z,-0.04
2022-12-27T23:24:26.288Z,-0.05
2022-12-27T23:27:09.086Z,-0.19
2022-12-27T23:29:51.855Z,-0.34
2022-12-27T23:32:34.702Z,-0.35
2022-12-27T23:35:18.907Z,-0.29
2022-12-27T23:38:01.907Z,-0.33
2022-12-27T23:40:44.701Z,-0.26
2022-12-27T23:43:51.652Z,-0.21
2022-12-27T23:46:35.062Z,-0.18
2022-12-27T23:49:18.248Z,-0.11
2022-12-27T23:52:02.427Z,-0.08
2022-12-27T23:54:45.189Z,-0.06
2022-12-27T23:57:27.972Z,-0.04
